Time;durP1;ratioP1;P1;durP2;ratioP2;P2;SDS_P1;SDS_P2;PMS_P1;PMS_P2;Temp;Humidity;BMP_temperature;BMP_pressure;BME280_temperature;BME280_humidity;BME280_pressure;Samples;Min_cycle;Max_cycle;Signal;HPM_P1;HPM_P2
2023/10/05 00:01:10;;;;;;;7.18;0.90;;;13.70;99.90;;;;;;4957108;28;20097;-89
2023/10/05 00:03:38;;;;;;;3.55;0.40;;;13.70;99.90;;;;;;4950806;29;20067;-89
2023/10/05 00:06:16;;;;;;;3.78;0.60;;;13.70;99.90;;;;;;4974807;28;20031;-92
2023/10/05 00:08:49;;;;;;;8.18;0.73;;;13.70;99.90;;;;;;4950901;28;20125;-88
2023/10/05 00:14:12;;;;;;;6.07;0.90;;;13.80;99.90;;;;;;4942946;28;20134;-92
2023/10/05 00:16:39;;;;;;;5.68;0.60;;;13.80;99.90;;;;;;4954680;28;20046;-93
2023/10/05 00:19:12;;;;;;;5.22;0.60;;;13.90;99.90;;;;;;4952981;28;20032;-91
2023/10/05 00:21:51;;;;;;;3.15;0.70;;;13.80;99.90;;;;;;4958318;28;20257;-90
2023/10/05 00:24:23;;;;;;;4.07;0.47;;;13.80;99.90;;;;;;4941397;28;20054;-90
2023/10/05 00:26:49;;;;;;;4.32;0.57;;;13.80;99.90;;;;;;4942259;28;20294;-90
2023/10/05 00:29:19;;;;;;;5.75;0.70;;;13.80;99.90;;;;;;4952303;28;20084;-91
2023/10/05 00:31:47;;;;;;;8.60;0.75;;;13.80;99.90;;;;;;4926706;28;20039;-89
2023/10/05 00:34:24;;;;;;;5.65;0.77;;;13.90;99.90;;;;;;4978585;28;20026;-90
2023/10/05 00:36:51;;;;;;;5.22;0.80;;;13.90;99.90;;;;;;4956442;28;20073;-90
2023/10/05 00:39:19;;;;;;;4.88;0.63;;;13.90;99.90;;;;;;4944399;29;20054;-90
2023/10/05 00:42:08;;;;;;;9.07;0.60;;;13.90;99.90;;;;;;4973563;28;20043;-91
2023/10/05 00:44:36;;;;;;;3.58;0.50;;;13.90;99.90;;;;;;4954695;28;20061;-92
2023/10/05 00:47:06;;;;;;;8.25;1.67;;;13.90;99.90;;;;;;4957281;28;20042;-91
2023/10/05 00:52:24;;;;;;;6.03;0.40;;;13.80;99.90;;;;;;4968474;28;19989;-90
2023/10/05 00:54:52;;;;;;;3.28;0.55;;;13.80;99.90;;;;;;4968513;28;20031;-91
2023/10/05 00:57:24;;;;;;;7.65;0.90;;;13.80;99.90;;;;;;4957137;28;20479;-90
2023/10/05 01:02:35;;;;;;;3.97;0.50;;;13.80;99.90;;;;;;4956307;28;20207;-94
2023/10/05 01:05:09;;;;;;;4.57;0.50;;;13.80;99.90;;;;;;4955147;28;20027;-91
2023/10/05 01:07:49;;;;;;;2.55;0.47;;;13.80;99.90;;;;;;4954700;28;20045;-91
2023/10/05 01:12:45;;;;;;;3.80;0.40;;;13.80;99.90;;;;;;4956326;28;20035;-92
2023/10/05 01:15:16;;;;;;;2.88;0.40;;;13.80;99.90;;;;;;4951797;28;20023;-91
2023/10/05 01:17:42;;;;;;;3.15;0.50;;;13.70;99.90;;;;;;4960477;28;20515;-93
2023/10/05 01:20:11;;;;;;;5.07;0.50;;;13.80;99.90;;;;;;4951377;28;20031;-91
2023/10/05 01:22:41;;;;;;;6.22;0.60;;;13.70;99.90;;;;;;4953168;28;20141;-94
2023/10/05 01:25:13;;;;;;;4.13;0.85;;;13.80;99.90;;;;;;4953632;28;20035;-90
2023/10/05 01:27:54;;;;;;;5.13;0.77;;;13.70;99.90;;;;;;4935182;28;20046;-90
2023/10/05 01:30:21;;;;;;;3.63;0.40;;;13.70;99.90;;;;;;4952602;28;20042;-92
2023/10/05 01:32:48;;;;;;;4.47;0.50;;;13.70;99.90;;;;;;4948299;28;20034;-91
2023/10/05 01:35:16;;;;;;;3.50;0.50;;;13.70;99.90;;;;;;4952322;28;20186;-90
2023/10/05 01:37:44;;;;;;;2.70;0.40;;;13.70;99.90;;;;;;4954759;28;20039;-90
2023/10/05 01:42:47;;;;;;;6.30;0.50;;;13.60;99.90;;;;;;4955769;28;20083;-89
2023/10/05 01:45:29;;;;;;;3.47;0.40;;;13.60;99.90;;;;;;4956221;28;20030;-92
2023/10/05 01:47:56;;;;;;;3.20;0.38;;;13.60;99.90;;;;;;4975264;28;20062;-91
2023/10/05 01:50:23;;;;;;;2.38;0.77;;;13.60;99.90;;;;;;4953474;28;20031;-87
2023/10/05 01:53:35;;;;;;;2.42;0.40;;;13.60;99.90;;;;;;4952312;28;20028;-88
2023/10/05 01:55:45;;;;;;;2.38;0.50;;;13.50;99.90;;;;;;4953027;28;20042;-90
2023/10/05 01:58:16;;;;;;;3.30;0.57;;;13.50;99.90;;;;;;4952873;28;20042;-88
2023/10/05 02:00:42;;;;;;;1.55;0.40;;;13.50;99.90;;;;;;4952366;28;20035;-90
2023/10/05 02:03:12;;;;;;;2.63;0.47;;;13.40;99.90;;;;;;4969030;28;20125;-90
2023/10/05 02:05:38;;;;;;;1.65;0.30;;;13.40;99.90;;;;;;4933305;28;20126;-89
2023/10/05 02:08:04;;;;;;;2.60;0.40;;;13.30;99.90;;;;;;4953475;28;20491;-89
2023/10/05 02:10:40;;;;;;;3.03;0.38;;;13.30;99.90;;;;;;4955560;28;20050;-94
2023/10/05 02:13:12;;;;;;;3.03;0.43;;;13.20;99.90;;;;;;4939346;28;20503;-88
2023/10/05 02:15:39;;;;;;;1.63;0.32;;;13.20;99.90;;;;;;4937290;28;20498;-87
2023/10/05 02:20:53;;;;;;;2.50;0.40;;;13.10;99.90;;;;;;4969324;28;20053;-90
2023/10/05 02:23:25;;;;;;;4.78;0.40;;;13.10;99.90;;;;;;4950141;28;20031;-88
2023/10/05 02:26:10;;;;;;;3.83;0.57;;;13.10;99.90;;;;;;4932924;29;20139;-90
2023/10/05 02:28:40;;;;;;;3.53;0.50;;;13.10;99.90;;;;;;4955450;28;20031;-93
2023/10/05 02:31:13;;;;;;;2.80;0.60;;;13.10;99.90;;;;;;4969770;28;20042;-88
2023/10/05 02:33:40;;;;;;;5.75;0.60;;;13.00;99.90;;;;;;4966030;28;20035;-88
2023/10/05 02:36:50;;;;;;;3.08;0.57;;;13.00;99.90;;;;;;4953598;28;20110;-88
2023/10/05 02:38:56;;;;;;;3.50;0.50;;;13.10;99.90;;;;;;4948488;28;20078;-90
2023/10/05 02:41:38;;;;;;;3.15;0.60;;;13.10;99.90;;;;;;4938147;28;20038;-89
2023/10/05 02:46:48;;;;;;;3.97;0.70;;;13.10;99.90;;;;;;4955706;28;20038;-90
2023/10/05 02:49:24;;;;;;;5.65;0.68;;;13.10;99.90;;;;;;4943642;28;20094;-90
2023/10/05 02:51:52;;;;;;;6.80;0.70;;;13.10;99.90;;;;;;4957094;28;20475;-90
2023/10/05 02:54:22;;;;;;;6.85;1.50;;;13.10;99.90;;;;;;4955376;28;20377;-89
2023/10/05 02:56:48;;;;;;;3.55;0.60;;;13.10;99.90;;;;;;4973125;28;20039;-92
2023/10/05 02:59:15;;;;;;;3.53;0.93;;;13.10;99.90;;;;;;4955272;28;20027;-92
2023/10/05 03:01:43;;;;;;;5.85;0.60;;;13.00;99.90;;;;;;4939181;28;20027;-89
2023/10/05 03:04:10;;;;;;;4.75;0.50;;;13.00;99.90;;;;;;4939372;28;20078;-91
2023/10/05 03:06:40;;;;;;;2.33;0.50;;;13.00;99.90;;;;;;4955455;28;20038;-91
2023/10/05 03:09:09;;;;;;;3.28;0.68;;;13.00;99.90;;;;;;4954373;28;20486;-88
2023/10/05 03:11:46;;;;;;;2.58;0.43;;;13.00;99.90;;;;;;4955139;28;20035;-89
2023/10/05 03:14:17;;;;;;;3.05;0.82;;;13.00;99.90;;;;;;4953401;28;20089;-89
2023/10/05 03:16:44;;;;;;;3.78;0.40;;;13.00;99.90;;;;;;4954611;28;20129;-87
2023/10/05 03:19:14;;;;;;;3.88;0.50;;;13.00;99.90;;;;;;4953271;28;20022;-87
2023/10/05 03:21:41;;;;;;;5.60;0.40;;;12.90;99.90;;;;;;4946486;28;20051;-88
2023/10/05 03:24:13;;;;;;;3.72;0.70;;;12.90;99.90;;;;;;4952777;28;20041;-89
2023/10/05 03:26:40;;;;;;;3.45;0.65;;;13.00;99.90;;;;;;4950638;28;20122;-91
2023/10/05 03:29:07;;;;;;;5.47;0.75;;;13.00;99.90;;;;;;4955581;28;20031;-90
2023/10/05 03:31:37;;;;;;;4.68;0.60;;;13.10;99.90;;;;;;4967157;28;20031;-89
2023/10/05 03:34:07;;;;;;;4.47;0.50;;;13.10;99.90;;;;;;4954465;28;20534;-92
2023/10/05 03:36:33;;;;;;;2.67;0.50;;;13.00;99.90;;;;;;4937731;28;20055;-89
2023/10/05 03:39:03;;;;;;;3.50;0.60;;;13.00;99.90;;;;;;4953772;28;20420;-88
2023/10/05 03:41:29;;;;;;;4.88;0.60;;;12.90;99.90;;;;;;4937820;28;20100;-88
2023/10/05 03:43:55;;;;;;;2.20;0.40;;;12.90;99.90;;;;;;4953133;28;20031;-88
2023/10/05 03:46:25;;;;;;;1.95;0.50;;;12.80;99.90;;;;;;4952568;28;20117;-90
2023/10/05 03:49:01;;;;;;;3.70;0.50;;;12.80;99.90;;;;;;4955071;28;20113;-88
2023/10/05 03:51:31;;;;;;;2.08;0.50;;;12.90;99.90;;;;;;4967783;28;20038;-87
2023/10/05 03:53:57;;;;;;;2.38;0.30;;;12.90;99.90;;;;;;4957155;28;20113;-90
2023/10/05 03:56:27;;;;;;;2.05;0.30;;;12.90;99.90;;;;;;4958356;28;20117;-87
2023/10/05 03:58:54;;;;;;;3.10;0.40;;;12.90;99.90;;;;;;4958244;28;20420;-87
2023/10/05 04:01:22;;;;;;;2.03;0.30;;;12.90;99.90;;;;;;4940876;28;20043;-89
2023/10/05 04:03:48;;;;;;;5.07;0.70;;;12.90;99.90;;;;;;4954065;28;20034;-87
2023/10/05 04:06:17;;;;;;;3.72;0.93;;;13.00;99.90;;;;;;4957646;28;20038;-88
2023/10/05 04:08:59;;;;;;;4.28;0.82;;;13.10;99.90;;;;;;4957226;28;20153;-87
2023/10/05 04:11:26;;;;;;;6.25;0.80;;;13.10;99.90;;;;;;4955178;28;20090;-89
2023/10/05 04:13:55;;;;;;;4.60;0.68;;;13.10;99.90;;;;;;4942353;28;20475;-88
2023/10/05 04:16:26;;;;;;;2.15;0.43;;;13.10;99.90;;;;;;4958383;28;20039;-88
2023/10/05 04:18:53;;;;;;;2.60;0.60;;;13.10;99.90;;;;;;4955731;28;20097;-89
2023/10/05 04:21:19;;;;;;;3.92;0.50;;;13.10;99.90;;;;;;4951666;28;20055;-92
2023/10/05 04:23:49;;;;;;;4.82;0.75;;;13.10;99.90;;;;;;4957966;28;20042;-89
2023/10/05 04:26:19;;;;;;;2.92;0.70;;;13.20;99.90;;;;;;4954655;28;20040;-88
2023/10/05 04:28:57;;;;;;;2.75;0.60;;;13.20;99.90;;;;;;4955378;28;20551;-92
2023/10/05 04:31:27;;;;;;;4.22;0.90;;;13.10;99.90;;;;;;4974227;28;20467;-88
2023/10/05 04:33:57;;;;;;;4.05;0.60;;;13.10;99.90;;;;;;4957420;28;20034;-89
2023/10/05 04:36:23;;;;;;;;;;;13.00;99.90;;;;;;4958635;28;20035;-88
2023/10/05 04:38:53;;;;;;;6.07;0.93;;;13.00;99.90;;;;;;4956362;28;19918;-91
2023/10/05 04:41:19;;;;;;;;;;;12.90;99.90;;;;;;4940459;28;20037;-90
2023/10/05 04:43:49;;;;;;;2.10;0.50;;;12.90;99.90;;;;;;4956352;28;19917;-88
2023/10/05 04:46:18;;;;;;;3.40;0.50;;;12.80;99.90;;;;;;4938341;28;20030;-88
2023/10/05 04:48:55;;;;;;;4.43;0.70;;;12.80;99.90;;;;;;4951349;28;20041;-91
2023/10/05 04:51:28;;;;;;;2.80;0.77;;;12.80;99.90;;;;;;4955772;28;20454;-91
2023/10/05 04:53:54;;;;;;;3.85;0.60;;;12.80;99.90;;;;;;4939949;28;20499;-89
2023/10/05 04:57:07;;;;;;;4.25;0.70;;;12.80;99.90;;;;;;4965233;28;20039;-89
2023/10/05 05:07:06;;;;;;;6.03;0.82;;;12.70;99.90;;;;;;4976117;28;20049;-93
2023/10/05 05:09:34;;;;;;;6.35;0.73;;;12.70;99.90;;;;;;4949096;28;20102;-89
2023/10/05 05:12:04;;;;;;;4.70;0.80;;;12.70;99.90;;;;;;4955278;28;20055;-89
2023/10/05 05:14:32;;;;;;;;;;;12.80;99.90;;;;;;4963075;28;20031;-90
2023/10/05 05:17:02;;;;;;;3.13;0.60;;;12.70;99.90;;;;;;4949558;28;19953;-87
2023/10/05 05:19:31;;;;;;;3.00;0.60;;;12.70;99.90;;;;;;4922080;28;20050;-94
2023/10/05 05:21:59;;;;;;;4.93;0.85;;;12.60;99.90;;;;;;4966090;28;20059;-91
2023/10/05 05:24:28;;;;;;;2.60;0.60;;;12.60;99.90;;;;;;4965809;28;20119;-89
2023/10/05 05:27:03;;;;;;;2.15;0.40;;;12.60;99.90;;;;;;4951964;28;20031;-90
2023/10/05 05:29:33;;;;;;;1.83;0.80;;;12.60;99.90;;;;;;4969420;28;20026;-91
2023/10/05 05:32:10;;;;;;;1.40;0.30;;;12.50;99.90;;;;;;4948869;28;20023;-91
2023/10/05 05:34:36;;;;;;;4.18;0.50;;;12.50;99.90;;;;;;4966181;28;20483;-90
2023/10/05 05:37:04;;;;;;;1.48;0.30;;;12.40;99.90;;;;;;4952994;28;20048;-91
2023/10/05 05:39:38;;;;;;;3.63;0.40;;;12.40;99.90;;;;;;4951028;28;20046;-89
2023/10/05 05:42:07;;;;;;;3.65;0.40;;;12.40;99.90;;;;;;4964303;28;20031;-91
2023/10/05 05:44:36;;;;;;;2.58;0.40;;;12.30;99.90;;;;;;4947947;28;20059;-91
2023/10/05 05:47:09;;;;;;;1.10;0.40;;;12.40;99.90;;;;;;4954828;28;20086;-90
2023/10/05 05:49:38;;;;;;;1.67;0.50;;;12.30;99.90;;;;;;4954368;28;20074;-92
2023/10/05 05:52:05;;;;;;;2.72;0.50;;;12.40;99.90;;;;;;4949562;28;20145;-90
2023/10/05 05:54:37;;;;;;;3.83;0.65;;;12.40;99.90;;;;;;4953648;28;20054;-91
2023/10/05 05:57:11;;;;;;;3.15;0.45;;;12.40;99.90;;;;;;4976097;28;20666;-91
2023/10/05 05:59:39;;;;;;;1.63;0.50;;;12.40;99.90;;;;;;4934004;28;20427;-91
2023/10/05 06:02:09;;;;;;;4.57;0.80;;;12.50;99.90;;;;;;4954929;28;20031;-90
2023/10/05 06:04:35;;;;;;;9.07;1.98;;;12.50;99.90;;;;;;4970000;28;20034;-91
2023/10/05 06:07:03;;;;;;;3.40;0.75;;;12.50;99.90;;;;;;4949841;28;20031;-90
2023/10/05 06:09:33;;;;;;;4.55;0.90;;;12.60;99.90;;;;;;4950957;28;20027;-91
2023/10/05 06:12:00;;;;;;;3.75;0.65;;;12.60;99.90;;;;;;4932133;28;20112;-89
2023/10/05 06:14:27;;;;;;;1.88;0.63;;;12.60;99.90;;;;;;4963442;28;20038;-89
2023/10/05 06:16:53;;;;;;;4.65;0.63;;;12.60;99.90;;;;;;4933141;28;20081;-90
2023/10/05 06:19:20;;;;;;;2.85;0.50;;;12.60;99.90;;;;;;4938727;28;20073;-89
2023/10/05 06:21:47;;;;;;;4.43;0.70;;;12.60;99.90;;;;;;4928265;28;20070;-89
2023/10/05 06:24:13;;;;;;;5.20;0.60;;;12.60;99.90;;;;;;4929806;28;20387;-90
2023/10/05 06:26:38;;;;;;;2.22;0.52;;;12.60;99.90;;;;;;4950535;28;20038;-89
2023/10/05 06:29:08;;;;;;;3.38;0.50;;;12.60;99.90;;;;;;4950316;28;20031;-92
2023/10/05 06:31:37;;;;;;;3.97;0.60;;;12.70;99.90;;;;;;4967879;28;20038;-89
2023/10/05 06:34:09;;;;;;;2.75;0.50;;;12.70;99.90;;;;;;4927426;28;20038;-89
2023/10/05 06:36:39;;;;;;;2.78;0.45;;;12.70;99.90;;;;;;4950025;28;20337;-90
2023/10/05 06:39:14;;;;;;;1.35;0.35;;;12.70;99.90;;;;;;4933590;28;20046;-89
2023/10/05 06:41:41;;;;;;;2.13;1.00;;;12.80;99.90;;;;;;4950579;28;20034;-89
2023/10/05 06:44:07;;;;;;;3.38;0.50;;;12.80;99.90;;;;;;4945000;28;20035;-93
2023/10/05 06:46:34;;;;;;;1.95;0.60;;;12.80;99.90;;;;;;4928684;28;20380;-88
2023/10/05 06:49:01;;;;;;;1.77;0.57;;;12.90;99.90;;;;;;4926987;28;20053;-91
2023/10/05 06:51:28;;;;;;;4.35;0.65;;;12.90;99.90;;;;;;4965864;28;20037;-90
2023/10/05 06:53:55;;;;;;;3.33;0.85;;;12.90;99.90;;;;;;4931482;28;20340;-89
2023/10/05 06:56:21;;;;;;;6.05;1.60;;;12.90;99.90;;;;;;4949014;28;20035;-90
2023/10/05 06:58:47;;;;;;;3.88;0.70;;;12.90;99.90;;;;;;4938627;28;20038;-89
2023/10/05 07:01:13;;;;;;;3.88;0.80;;;13.00;99.90;;;;;;4946261;28;20026;-90
2023/10/05 07:03:39;;;;;;;4.32;0.98;;;13.00;99.90;;;;;;4929270;28;20031;-89
2023/10/05 07:06:05;;;;;;;4.38;0.88;;;13.10;99.90;;;;;;4944334;28;20035;-89
2023/10/05 07:08:34;;;;;;;5.22;0.70;;;13.10;99.90;;;;;;4950120;28;20041;-90
2023/10/05 07:11:00;;;;;;;4.07;0.93;;;13.10;99.90;;;;;;4949306;28;20495;-88
2023/10/05 07:13:28;;;;;;;5.75;0.90;;;13.20;99.90;;;;;;4932525;28;20046;-91
2023/10/05 07:15:55;;;;;;;4.68;0.93;;;13.30;99.90;;;;;;4930590;28;20142;-93
2023/10/05 07:18:21;;;;;;;5.75;1.10;;;13.30;99.90;;;;;;4945899;28;20514;-88
2023/10/05 07:20:48;;;;;;;7.00;0.80;;;13.30;99.90;;;;;;4931043;28;20055;-89
2023/10/05 07:23:14;;;;;;;4.47;0.90;;;13.40;99.90;;;;;;4941953;28;20043;-91
2023/10/05 07:25:41;;;;;;;6.57;1.00;;;13.40;99.90;;;;;;4968430;28;20130;-94
2023/10/05 07:28:14;;;;;;;5.68;1.05;;;13.40;99.90;;;;;;4931798;28;20046;-91
2023/10/05 07:30:43;;;;;;;4.78;1.20;;;13.50;99.90;;;;;;4932364;28;20038;-89
2023/10/05 07:33:09;;;;;;;5.38;1.25;;;13.60;99.90;;;;;;4953875;28;20519;-91
2023/10/05 07:35:36;;;;;;;3.08;0.80;;;13.70;99.90;;;;;;4933548;28;20042;-89
2023/10/05 07:38:02;;;;;;;8.55;1.80;;;13.80;99.90;;;;;;4951365;28;20043;-92
2023/10/05 07:40:28;;;;;;;3.35;1.02;;;13.70;99.90;;;;;;4948887;28;20030;-92
2023/10/05 07:42:54;;;;;;;7.72;1.45;;;13.80;99.90;;;;;;4934108;28;20031;-90
2023/10/05 07:45:20;;;;;;;5.05;1.08;;;13.80;99.90;;;;;;4937057;28;20073;-91
2023/10/05 07:47:49;;;;;;;5.57;1.08;;;13.90;99.90;;;;;;4930717;28;20442;-91
2023/10/05 07:50:15;;;;;;;3.70;1.10;;;14.00;99.90;;;;;;4941010;28;20027;-91
2023/10/05 07:52:43;;;;;;;3.85;1.27;;;14.10;99.90;;;;;;4931657;28;20031;-92
2023/10/05 07:55:10;;;;;;;3.63;1.20;;;14.10;99.90;;;;;;4936314;28;20113;-90
2023/10/05 07:57:35;;;;;;;6.78;1.30;;;14.20;99.90;;;;;;4953672;28;20046;-91
2023/10/05 08:00:04;;;;;;;10.52;2.35;;;14.30;99.90;;;;;;4952728;28;20038;-90
2023/10/05 08:02:40;;;;;;;5.97;1.15;;;14.30;99.90;;;;;;4969226;28;20050;-93
2023/10/05 08:05:09;;;;;;;5.57;0.90;;;14.40;99.90;;;;;;4952836;28;20054;-91
2023/10/05 08:07:35;;;;;;;9.38;1.77;;;14.40;99.90;;;;;;4931627;28;20043;-93
2023/10/05 08:10:00;;;;;;;6.88;1.15;;;14.40;99.90;;;;;;4937367;28;20357;-94
2023/10/05 08:12:29;;;;;;;4.00;1.08;;;14.50;99.90;;;;;;4946987;28;20086;-91
2023/10/05 08:14:55;;;;;;;5.85;1.30;;;14.60;99.90;;;;;;4936417;28;20027;-91
2023/10/05 08:17:21;;;;;;;5.80;1.40;;;14.60;99.90;;;;;;4952230;28;20034;-92
2023/10/05 08:19:47;;;;;;;8.85;1.40;;;14.60;99.90;;;;;;4932297;28;20023;-91
2023/10/05 08:22:16;;;;;;;5.88;1.40;;;14.60;99.90;;;;;;4931998;28;20526;-94
2023/10/05 08:24:42;;;;;;;7.47;1.77;;;14.80;99.90;;;;;;4953690;28;20092;-92
2023/10/05 08:27:13;;;;;;;8.13;1.55;;;14.80;99.90;;;;;;4953332;28;20266;-92
2023/10/05 08:29:40;;;;;;;6.50;1.48;;;14.70;99.90;;;;;;4952401;28;20569;-92
2023/10/05 08:32:07;;;;;;;3.17;0.80;;;14.90;99.90;;;;;;4946452;28;20034;-92
2023/10/05 08:34:33;;;;;;;6.28;1.67;;;15.00;99.90;;;;;;4933379;28;20027;-93
2023/10/05 08:37:01;;;;;;;5.60;1.38;;;14.90;99.90;;;;;;4927761;28;20046;-91
2023/10/05 08:39:30;;;;;;;8.07;1.13;;;15.00;99.90;;;;;;4935506;28;20028;-92
2023/10/05 08:41:57;;;;;;;4.85;0.93;;;15.20;99.90;;;;;;4932721;28;20038;-95
2023/10/05 08:44:26;;;;;;;7.40;1.85;;;15.40;99.90;;;;;;4950162;28;20441;-92
2023/10/05 08:46:55;;;;;;;6.88;1.42;;;15.30;99.90;;;;;;4932055;28;20119;-93
2023/10/05 08:49:23;;;;;;;4.72;0.90;;;15.30;99.90;;;;;;4953536;28;20110;-91
2023/10/05 08:51:50;;;;;;;7.03;1.45;;;15.60;99.90;;;;;;4952486;28;20041;-93
2023/10/05 08:54:21;;;;;;;7.28;1.20;;;15.60;99.90;;;;;;4936238;28;20377;-92
2023/10/05 08:56:48;;;;;;;6.85;2.08;;;15.70;99.90;;;;;;4953662;28;20278;-93
2023/10/05 08:59:15;;;;;;;7.80;0.90;;;15.40;99.90;;;;;;4952272;28;20094;-91
2023/10/05 09:01:42;;;;;;;9.13;1.73;;;15.70;99.90;;;;;;4936078;28;20024;-95
2023/10/05 09:07:08;;;;;;;6.25;1.25;;;15.60;99.90;;;;;;4968631;28;20029;-92
2023/10/05 09:09:39;;;;;;;7.40;1.67;;;15.90;99.90;;;;;;4952567;28;20058;-92
2023/10/05 09:12:35;;;;;;;7.78;1.63;;;15.90;99.90;;;;;;4951676;28;20033;-95
2023/10/05 09:15:10;;;;;;;5.95;1.30;;;16.00;99.90;;;;;;4951904;28;20087;-90
2023/10/05 09:17:36;;;;;;;5.80;1.60;;;16.10;99.90;;;;;;4953501;28;20135;-92
2023/10/05 09:20:22;;;;;;;6.53;1.40;;;15.90;99.90;;;;;;4931478;28;20027;-93
2023/10/05 09:22:55;;;;;;;6.85;1.15;;;16.00;99.90;;;;;;4943597;28;20043;-95
2023/10/05 09:25:27;;;;;;;9.18;1.00;;;16.00;99.90;;;;;;4948074;28;20062;-94
2023/10/05 09:28:09;;;;;;;5.50;1.42;;;16.10;99.90;;;;;;4929827;28;20463;-94
2023/10/05 09:30:46;;;;;;;5.28;1.05;;;16.00;99.90;;;;;;4930363;28;20186;-94
2023/10/05 09:33:18;;;;;;;5.15;1.15;;;16.00;99.90;;;;;;4933863;28;20082;-95
2023/10/05 09:35:46;;;;;;;7.70;1.90;;;16.00;99.90;;;;;;4934537;28;20035;-95
2023/10/05 09:38:19;;;;;;;7.40;1.55;;;15.80;99.90;;;;;;4953879;28;20049;-94
2023/10/05 09:40:47;;;;;;;7.82;1.35;;;15.90;99.90;;;;;;4929405;28;20034;-94
2023/10/05 09:43:18;;;;;;;6.72;1.02;;;16.00;99.90;;;;;;4946312;28;20035;-91
2023/10/05 09:45:48;;;;;;;7.47;1.55;;;16.00;99.90;;;;;;4946375;28;20121;-94
2023/10/05 09:48:17;;;;;;;6.78;0.95;;;16.10;99.90;;;;;;4934193;28;20035;-93
2023/10/05 09:50:43;;;;;;;5.55;1.10;;;16.20;99.90;;;;;;4952387;28;20034;-93
2023/10/05 09:53:11;;;;;;;7.95;2.08;;;16.20;99.90;;;;;;4931364;28;20031;-92
2023/10/05 09:55:40;;;;;;;7.97;1.40;;;16.10;99.90;;;;;;4952808;28;20034;-92
2023/10/05 09:58:12;;;;;;;4.43;1.00;;;16.10;99.90;;;;;;4946667;28;20038;-92
2023/10/05 10:03:05;;;;;;;3.67;0.90;;;16.20;99.90;;;;;;4969841;28;20086;-92
2023/10/05 10:05:35;;;;;;;6.20;0.77;;;16.20;99.90;;;;;;4933735;28;20054;-91
2023/10/05 10:08:09;;;;;;;8.45;1.00;;;16.30;99.90;;;;;;4936760;28;20039;-93
2023/10/05 10:10:41;;;;;;;9.40;0.90;;;16.10;99.90;;;;;;4940050;28;20050;-92
2023/10/05 10:13:13;;;;;;;8.38;1.40;;;16.30;99.90;;;;;;4951814;28;20106;-93
2023/10/05 10:15:39;;;;;;;11.52;1.17;;;16.20;99.90;;;;;;4934056;28;20406;-93
2023/10/05 10:18:14;;;;;;;6.28;0.68;;;16.30;99.90;;;;;;4949810;28;20043;-94
2023/10/05 10:20:47;;;;;;;9.27;0.95;;;16.60;99.90;;;;;;4929148;28;20035;-95
2023/10/05 10:23:35;;;;;;;6.30;0.80;;;16.50;99.90;;;;;;4973570;28;20090;-92
2023/10/05 10:26:18;;;;;;;7.25;0.70;;;16.50;99.90;;;;;;4946166;28;20039;-93
2023/10/05 10:31:19;;;;;;;9.48;0.95;;;16.60;99.90;;;;;;4950329;28;20046;-93
2023/10/05 10:33:52;;;;;;;3.20;0.60;;;16.70;99.90;;;;;;4965144;28;20034;-93
2023/10/05 10:36:41;;;;;;;6.00;0.88;;;16.80;99.90;;;;;;4937590;28;20031;-91
2023/10/05 10:39:23;;;;;;;6.07;0.82;;;16.80;99.90;;;;;;4945342;28;20285;-95
2023/10/05 10:42:04;;;;;;;7.38;1.15;;;16.70;99.90;;;;;;4930645;28;20058;-91
2023/10/05 10:47:16;;;;;;;9.40;0.80;;;16.60;99.90;;;;;;4950519;28;20031;-92
2023/10/05 10:53:00;;;;;;;3.05;0.50;;;16.90;99.90;;;;;;4922009;28;20415;-94
2023/10/05 10:55:31;;;;;;;5.43;0.60;;;16.90;99.90;;;;;;4966538;28;20027;-93
2023/10/05 10:57:59;;;;;;;4.55;0.77;;;16.90;99.90;;;;;;4929919;28;20061;-93
2023/10/05 11:03:11;;;;;;;4.28;0.63;;;16.80;99.90;;;;;;4972415;28;20050;-93
2023/10/05 11:05:40;;;;;;;6.70;0.80;;;16.70;99.90;;;;;;4976809;28;20105;-94
2023/10/05 11:08:12;;;;;;;8.35;0.65;;;16.60;99.90;;;;;;4951606;28;20030;-93
2023/10/05 11:10:42;;;;;;;6.32;0.80;;;16.60;99.90;;;;;;4934267;28;20031;-93
2023/10/05 11:13:18;;;;;;;7.65;0.90;;;16.70;99.90;;;;;;4960756;28;20464;-93
2023/10/05 11:15:57;;;;;;;8.50;1.35;;;16.70;99.90;;;;;;4935252;28;20567;-95
2023/10/05 11:18:31;;;;;;;6.05;1.35;;;16.60;99.90;;;;;;4975048;28;20049;-94
2023/10/05 11:21:26;;;;;;;7.28;0.93;;;16.60;99.90;;;;;;4952779;28;20483;-91
2023/10/05 11:23:56;;;;;;;7.55;0.82;;;16.70;99.90;;;;;;4946953;28;20435;-95
2023/10/05 11:26:57;;;;;;;;;;;16.90;99.90;;;;;;4941225;28;20038;-94
2023/10/05 11:29:42;;;;;;;6.10;0.68;;;16.90;99.90;;;;;;4975095;28;20016;-92
2023/10/05 11:32:12;;;;;;;4.43;0.60;;;17.00;99.90;;;;;;4952465;28;20022;-92
2023/10/05 11:34:42;;;;;;;8.15;0.70;;;17.00;99.90;;;;;;4954050;28;20033;-91
2023/10/05 11:37:18;;;;;;;5.35;0.50;;;16.90;99.90;;;;;;4934627;28;20035;-95
2023/10/05 11:39:50;;;;;;;6.88;0.60;;;17.20;99.90;;;;;;4964851;28;20022;-94
2023/10/05 11:42:24;;;;;;;4.15;0.60;;;17.00;99.90;;;;;;4947134;28;20031;-92
2023/10/05 11:45:00;;;;;;;5.05;0.68;;;17.10;99.90;;;;;;4949103;28;20121;-94
2023/10/05 11:47:35;;;;;;;7.65;0.93;;;17.20;99.90;;;;;;4953747;28;20550;-93
2023/10/05 11:50:08;;;;;;;4.57;0.65;;;17.00;99.90;;;;;;4952717;28;20771;-91
2023/10/05 11:52:40;;;;;;;7.25;0.70;;;17.10;99.90;;;;;;4952158;28;20041;-92
2023/10/05 11:55:11;;;;;;;5.68;0.90;;;17.00;99.90;;;;;;4935083;28;20117;-93
2023/10/05 11:57:38;;;;;;;6.13;0.75;;;16.80;99.90;;;;;;4972730;28;20082;-92
2023/10/05 12:00:05;;;;;;;7.70;1.10;;;16.80;99.90;;;;;;4930876;28;20034;-93
2023/10/05 12:02:33;;;;;;;3.63;0.70;;;16.80;99.90;;;;;;4936386;28;20034;-93
2023/10/05 12:04:59;;;;;;;4.80;0.70;;;16.90;99.90;;;;;;4934291;28;20027;-93
2023/10/05 12:07:25;;;;;;;4.90;0.80;;;17.10;99.90;;;;;;4950516;28;20081;-93
2023/10/05 12:09:51;;;;;;;4.53;0.70;;;17.10;99.90;;;;;;4933250;28;20419;-94
2023/10/05 12:12:18;;;;;;;4.22;0.80;;;17.20;99.90;;;;;;4941517;28;20057;-93
2023/10/05 12:14:44;;;;;;;5.93;0.73;;;17.20;99.90;;;;;;4931263;28;20030;-94
2023/10/05 12:17:10;;;;;;;5.32;0.73;;;17.40;99.90;;;;;;4933490;28;20385;-93
2023/10/05 12:19:37;;;;;;;5.15;0.80;;;17.20;99.90;;;;;;4931207;28;20414;-94
2023/10/05 12:22:08;;;;;;;8.43;1.20;;;17.10;99.90;;;;;;4933133;28;20109;-92
2023/10/05 12:24:34;;;;;;;8.35;1.00;;;17.10;99.90;;;;;;4971491;28;20143;-92
2023/10/05 12:27:04;;;;;;;4.93;0.90;;;17.10;99.90;;;;;;4936283;28;20031;-92
2023/10/05 12:29:30;;;;;;;5.35;0.82;;;17.00;99.90;;;;;;4931430;28;20031;-92
2023/10/05 12:32:01;;;;;;;5.60;1.02;;;17.20;99.90;;;;;;4935237;28;20035;-91
2023/10/05 12:34:27;;;;;;;6.63;0.90;;;17.20;99.90;;;;;;4930908;28;20027;-93
2023/10/05 12:36:53;;;;;;;5.60;0.60;;;17.10;99.90;;;;;;4930929;28;20039;-92
2023/10/05 12:39:20;;;;;;;8.98;0.80;;;17.20;99.90;;;;;;4935621;28;20089;-91
2023/10/05 12:41:50;;;;;;;6.35;0.95;;;17.20;99.90;;;;;;4932768;28;20440;-92
2023/10/05 12:44:17;;;;;;;6.53;0.98;;;17.20;99.90;;;;;;4969690;28;20085;-93
2023/10/05 12:46:45;;;;;;;3.33;0.60;;;17.30;99.90;;;;;;4949706;28;20593;-92
2023/10/05 12:49:15;;;;;;;6.13;0.82;;;17.40;99.90;;;;;;4934756;28;20031;-92
2023/10/05 12:51:42;;;;;;;6.78;0.75;;;17.30;99.90;;;;;;4952930;28;20034;-93
2023/10/05 12:54:34;;;;;;;7.80;0.88;;;17.20;99.90;;;;;;4954749;28;20114;-96
2023/10/05 12:57:10;;;;;;;4.18;0.85;;;17.20;99.90;;;;;;4950447;28;20035;-92
2023/10/05 12:59:36;;;;;;;6.40;0.70;;;17.20;99.90;;;;;;4968765;28;20092;-92
2023/10/05 13:02:13;;;;;;;3.95;0.70;;;17.30;99.90;;;;;;4932282;28;20395;-91
2023/10/05 13:04:39;;;;;;;2.63;0.50;;;17.30;99.90;;;;;;4937257;28;20051;-90
2023/10/05 13:07:04;;;;;;;3.30;0.60;;;17.30;99.90;;;;;;4935226;28;20057;-93
2023/10/05 13:09:32;;;;;;;5.40;0.50;;;17.30;99.90;;;;;;4933659;28;20122;-92
2023/10/05 13:11:58;;;;;;;4.60;0.60;;;17.20;99.90;;;;;;4952196;28;20046;-91
2023/10/05 13:14:24;;;;;;;4.38;0.50;;;17.30;99.90;;;;;;4934353;28;20045;-93
2023/10/05 13:16:54;;;;;;;5.35;0.63;;;17.40;99.90;;;;;;4951913;28;20043;-92
2023/10/05 13:19:20;;;;;;;4.78;0.70;;;17.40;99.90;;;;;;4947563;28;20023;-92
2023/10/05 13:21:46;;;;;;;8.65;0.98;;;17.30;99.90;;;;;;4946791;28;20047;-94
2023/10/05 13:24:12;;;;;;;6.22;0.60;;;17.20;99.90;;;;;;4936141;28;20413;-92
2023/10/05 13:26:49;;;;;;;3.85;0.60;;;17.20;99.90;;;;;;4934610;28;20031;-93
2023/10/05 13:29:24;;;;;;;3.40;0.55;;;17.20;99.90;;;;;;4946780;28;20035;-95
2023/10/05 13:31:50;;;;;;;4.80;0.60;;;17.10;99.90;;;;;;4928078;28;20042;-92
2023/10/05 13:34:16;;;;;;;3.50;0.70;;;17.20;99.90;;;;;;4948291;28;20041;-90
2023/10/05 13:36:43;;;;;;;3.88;0.50;;;17.30;99.90;;;;;;4967272;28;20034;-92
2023/10/05 13:39:14;;;;;;;6.30;1.45;;;17.30;99.90;;;;;;4950439;28;20089;-91
2023/10/05 13:41:46;;;;;;;3.00;0.40;;;17.40;99.90;;;;;;4934078;28;20023;-92
2023/10/05 13:44:17;;;;;;;2.80;0.57;;;17.40;99.90;;;;;;4951828;28;20055;-92
2023/10/05 13:46:44;;;;;;;2.53;0.50;;;17.40;99.90;;;;;;4970830;28;20065;-91